Airfield :
LOGIN :

Register | Disclaimer

   EN    FR    IT 

 










Legend :    VFR   Marginal VFR   IFR   Intensive IFR   Very Intensive IFR
Visi :
Ceiling :
>= 8 km
>= 3000ft
5 to 8 km
1000 to 3000 ft
1500m to 5 km
500 to 1000 ft
800 to 1500m
200 to 500 ft
< 800m
< 200 ft
Symbols :   Thunderstorms  Fog  Heavy snow  Heavy precipitations  Wind > 20 kt
SIGMETs :     Misc.  Thunderstorms  Icing  Turbulence  Mountain Waves  Volcanic Ashes






- Airport Elevation : 1649 ft
- IATA code : HHN


EDFH - Frankfurt-Hahn Rhineland-Palatinate

CURRENT METAR :
  • 250750Z 07006KT 020V120 CAVOK 20/13 Q1016

EXPIRED METARs :
  • 250720Z 08005KT 030V140 CAVOK 20/13 Q1016
  • 250650Z 07004KT 020V140 CAVOK 19/12 Q1017
  • 250620Z 11003KT 060V180 CAVOK 18/12 Q1016
  • 250550Z 07004KT 030V130 CAVOK 18/12 Q1017
  • 250520Z VRB02KT CAVOK 17/11 Q1017
  • 250450Z 10004KT 060V180 CAVOK 16/11 Q1016
  • 250420Z 10004KT 060V140 CAVOK 15/11 Q1016
  • 250350Z 09003KT 050V130 CAVOK 15/11 Q1016
  • 250320Z 10003KT 050V150 CAVOK 14/11 Q1016

TAF TAF EDFH
Valid from the 25 at 06:00 until the 26 at 06:00 UTC


250500Z 2506/2606 08008KT CAVOK



MET'MAP, your aeronautical weather chart ! - Copyright ORBIFLY December 2007 - Disclaimer

ORBIFLY MET'MAP TEAM :

Programming & Development : Alexandra Zaïnal
Original concept : Baudouin d'Aumeries
Technical & hardware support : Manuel Goepfert
Assistance : Marc-Olivier Méhu




SOURCES & CREDITS :

   NOAA